Jackie Cenac — WDG9141 — position and weather

sailwx.info

Track history (hours):
 
Tides and Currents Weather Stations Pressure Air Temp Water Temp Dewpoint Dewpoint Depression Visibility Wind Speed Wind Dir Waves Ship Positions

Jackie Cenac

Owner: Cenac Marine Services, Houma, LA. More information available from US FCC via Universal Licensing System and Coast Guard Vessel Documentation Center.

Last reported at 2017-Oct-18 20:59 UTC. Time now 2017-Oct-20 06:55 UTC.
Position N 29°31' W 094°53'.

Length 22 m; draft 3.3 m.

Type: Tug. MMSI: 367584740.

Date/timePositionNaut miles runAvg speedWind from/ knotsBaromVisibWave heightAir tempDewpointWater temp
2017-Oct-18 20:59N 29°31' W 094°53'3 6.2
2017-Oct-18 20:30N 29°34' W 094°55'3 6.2
2017-Oct-18 20:01N 29°36' W 094°57'3 6.3
2017-Oct-18 19:30N 29°39' W 094°58'3 6.0
2017-Oct-18 18:59N 29°42' W 095°00'3 3.1
2017-Oct-18 18:02N 29°44' W 095°03'0 0.3
2017-Oct-18 17:58N 29°44' W 095°03'0 0.2
2017-Oct-18 17:24N 29°44' W 095°03'0 0.0
2017-Oct-18 17:00N 29°44' W 095°03'0 0.0
2017-Oct-18 16:30N 29°44' W 095°03'0 0.0
2017-Oct-18 16:00N 29°44' W 095°03'0 0.0
2017-Oct-18 15:21N 29°44' W 095°03'0 0.0
2017-Oct-18 15:00N 29°44' W 095°03'0 0.0
2017-Oct-18 13:58N 29°44' W 095°03'0 0.0
2017-Oct-18 13:30N 29°44' W 095°03'0 0.0
2017-Oct-18 13:00N 29°44' W 095°03'0 0.0
2017-Oct-18 12:30N 29°44' W 095°03'0 0.0
2017-Oct-18 12:01N 29°44' W 095°03'0 0.0
2017-Oct-18 11:30N 29°44' W 095°03'0 0.0
2017-Oct-18 11:00N 29°44' W 095°03'0 0.0
2017-Oct-18 10:30N 29°44' W 095°03'0 0.0
2017-Oct-18 10:00N 29°44' W 095°03'0 0.0
2017-Oct-18 09:29N 29°44' W 095°03'0 0.0
2017-Oct-18 08:59N 29°44' W 095°03'0 0.0
2017-Oct-18 08:30N 29°44' W 095°03'0 0.0
2017-Oct-18 08:00N 29°44' W 095°03'0 0.0
2017-Oct-18 07:30N 29°44' W 095°03'0 0.0
2017-Oct-18 07:00N 29°44' W 095°03'0 0.0
2017-Oct-18 06:30N 29°44' W 095°03'0 0.0
2017-Oct-18 06:00N 29°44' W 095°03'0 0.0
2017-Oct-18 05:30N 29°44' W 095°03'0 0.0
2017-Oct-18 05:00N 29°44' W 095°03'0 0.0
2017-Oct-18 04:30N 29°44' W 095°03'0 0.0
2017-Oct-18 04:00N 29°44' W 095°03'0 0.0
2017-Oct-18 03:30N 29°44' W 095°03'0 0.0
2017-Oct-18 03:01N 29°44' W 095°03'0 0.0
2017-Oct-18 02:29N 29°44' W 095°03'0 0.0
2017-Oct-18 02:00N 29°44' W 095°03'0 0.0
2017-Oct-18 01:30N 29°44' W 095°03'0 0.0
2017-Oct-18 01:00N 29°44' W 095°03'0 0.0
2017-Oct-18 00:30N 29°44' W 095°03'0 0.0
2017-Oct-18 00:00N 29°44' W 095°03'0 0.0
2017-Oct-17 23:27N 29°44' W 095°03'0 0.1
2017-Oct-17 22:51N 29°44' W 095°03'4 0.2
2017-Oct-17 06:18N 29°47' W 095°06'0 0.0
2017-Oct-17 05:48N 29°47' W 095°06'0 0.0
2017-Oct-17 05:28N 29°47' W 095°06'0 0.0
2017-Oct-17 04:59N 29°47' W 095°06'0 0.0
2017-Oct-17 04:16N 29°47' W 095°06'0 0.0
2017-Oct-17 03:45N 29°47' W 095°06'0 0.0
2017-Oct-17 03:10N 29°47' W 095°06'0 0.0
2017-Oct-17 02:52N 29°47' W 095°06'  
2017-Oct-12 12:43N 29°47' W 095°06'0 0.0
2017-Oct-12 12:20N 29°47' W 095°06'0 0.0
2017-Oct-12 08:28N 29°47' W 095°06'0 0.0
2017-Oct-12 06:52N 29°47' W 095°06'0 0.0
2017-Oct-12 06:27N 29°47' W 095°06'0 0.0
2017-Oct-12 04:54N 29°47' W 095°06'0 0.0
2017-Oct-12 04:27N 29°47' W 095°06'0 0.0
2017-Oct-12 03:57N 29°47' W 095°06'0 0.0
2017-Oct-12 03:26N 29°47' W 095°06'0 0.0
2017-Oct-12 02:55N 29°47' W 095°06'0 0.0
2017-Oct-12 02:28N 29°47' W 095°06'0 0.0
2017-Oct-12 01:47N 29°47' W 095°06'0 0.0
2017-Oct-12 01:22N 29°47' W 095°06'  
Track history (hours):
 
Tides and Currents Weather Stations Pressure Air Temp Water Temp Dewpoint Dewpoint Depression Visibility Wind Speed Wind Dir Waves Ship Positions

Jackie Cenac

Owner: Cenac Marine Services, Houma, LA. More information available from US FCC via Universal Licensing System and Coast Guard Vessel Documentation Center.

Last reported at 2017-Oct-18 20:59 UTC. Time now 2017-Oct-20 06:55 UTC.
Position N 29°31' W 094°53'.

Length 22 m; draft 3.3 m.

Type: Tug. MMSI: 367584740.

Date/timePositionNaut miles runAvg speedWind from/ knotsBaromVisibWave heightAir tempDewpointWater temp
2017-Oct-18 20:59N 29°31' W 094°53'3 6.2
2017-Oct-18 20:30N 29°34' W 094°55'3 6.2
2017-Oct-18 20:01N 29°36' W 094°57'3 6.3
2017-Oct-18 19:30N 29°39' W 094°58'3 6.0
2017-Oct-18 18:59N 29°42' W 095°00'3 3.1
2017-Oct-18 18:02N 29°44' W 095°03'0 0.3
2017-Oct-18 17:58N 29°44' W 095°03'0 0.2
2017-Oct-18 17:24N 29°44' W 095°03'0 0.0
2017-Oct-18 17:00N 29°44' W 095°03'0 0.0
2017-Oct-18 16:30N 29°44' W 095°03'0 0.0
2017-Oct-18 16:00N 29°44' W 095°03'0 0.0
2017-Oct-18 15:21N 29°44' W 095°03'0 0.0
2017-Oct-18 15:00N 29°44' W 095°03'0 0.0
2017-Oct-18 13:58N 29°44' W 095°03'0 0.0
2017-Oct-18 13:30N 29°44' W 095°03'0 0.0
2017-Oct-18 13:00N 29°44' W 095°03'0 0.0
2017-Oct-18 12:30N 29°44' W 095°03'0 0.0
2017-Oct-18 12:01N 29°44' W 095°03'0 0.0
2017-Oct-18 11:30N 29°44' W 095°03'0 0.0
2017-Oct-18 11:00N 29°44' W 095°03'0 0.0
2017-Oct-18 10:30N 29°44' W 095°03'0 0.0
2017-Oct-18 10:00N 29°44' W 095°03'0 0.0
2017-Oct-18 09:29N 29°44' W 095°03'0 0.0
2017-Oct-18 08:59N 29°44' W 095°03'0 0.0
2017-Oct-18 08:30N 29°44' W 095°03'0 0.0
2017-Oct-18 08:00N 29°44' W 095°03'0 0.0
2017-Oct-18 07:30N 29°44' W 095°03'0 0.0
2017-Oct-18 07:00N 29°44' W 095°03'0 0.0
2017-Oct-18 06:30N 29°44' W 095°03'0 0.0
2017-Oct-18 06:00N 29°44' W 095°03'0 0.0
2017-Oct-18 05:30N 29°44' W 095°03'0 0.0
2017-Oct-18 05:00N 29°44' W 095°03'0 0.0
2017-Oct-18 04:30N 29°44' W 095°03'0 0.0
2017-Oct-18 04:00N 29°44' W 095°03'0 0.0
2017-Oct-18 03:30N 29°44' W 095°03'0 0.0
2017-Oct-18 03:01N 29°44' W 095°03'0 0.0
2017-Oct-18 02:29N 29°44' W 095°03'0 0.0
2017-Oct-18 02:00N 29°44' W 095°03'0 0.0
2017-Oct-18 01:30N 29°44' W 095°03'0 0.0
2017-Oct-18 01:00N 29°44' W 095°03'0 0.0
2017-Oct-18 00:30N 29°44' W 095°03'0 0.0
2017-Oct-18 00:00N 29°44' W 095°03'0 0.0
2017-Oct-17 23:27N 29°44' W 095°03'0 0.1
2017-Oct-17 22:51N 29°44' W 095°03'4 0.2
2017-Oct-17 06:18N 29°47' W 095°06'0 0.0
2017-Oct-17 05:48N 29°47' W 095°06'0 0.0
2017-Oct-17 05:28N 29°47' W 095°06'0 0.0
2017-Oct-17 04:59N 29°47' W 095°06'0 0.0
2017-Oct-17 04:16N 29°47' W 095°06'0 0.0
2017-Oct-17 03:45N 29°47' W 095°06'0 0.0
2017-Oct-17 03:10N 29°47' W 095°06'0 0.0
2017-Oct-17 02:52N 29°47' W 095°06'  
2017-Oct-12 12:43N 29°47' W 095°06'0 0.0
2017-Oct-12 12:20N 29°47' W 095°06'0 0.0
2017-Oct-12 08:28N 29°47' W 095°06'0 0.0
2017-Oct-12 06:52N 29°47' W 095°06'0 0.0
2017-Oct-12 06:27N 29°47' W 095°06'0 0.0
2017-Oct-12 04:54N 29°47' W 095°06'0 0.0
2017-Oct-12 04:27N 29°47' W 095°06'0 0.0
2017-Oct-12 03:57N 29°47' W 095°06'0 0.0
2017-Oct-12 03:26N 29°47' W 095°06'0 0.0
2017-Oct-12 02:55N 29°47' W 095°06'0 0.0
2017-Oct-12 02:28N 29°47' W 095°06'0 0.0
2017-Oct-12 01:47N 29°47' W 095°06'0 0.0
2017-Oct-12 01:22N 29°47' W 095°06'  

Dump ship's entire track history